createdAt,value
2018-02-16T00:00:20.262Z,2.70
2018-02-16T00:02:22.912Z,2.70
2018-02-16T00:04:26.310Z,2.70
2018-02-16T00:06:29.033Z,2.70
2018-02-16T00:08:31.622Z,2.60
2018-02-16T00:10:35.142Z,2.70
2018-02-16T00:12:38.543Z,2.60
2018-02-16T00:14:41.914Z,2.50
2018-02-16T00:16:44.630Z,2.50
2018-02-16T00:18:47.356Z,2.60
2018-02-16T00:20:50.772Z,2.50
2018-02-16T00:22:54.183Z,2.50
2018-02-16T00:24:57.595Z,2.40
2018-02-16T00:27:01.114Z,2.30
2018-02-16T00:29:04.523Z,2.50
2018-02-16T00:31:07.928Z,2.50
2018-02-16T00:33:10.547Z,2.40
2018-02-16T00:35:13.953Z,2.40
2018-02-16T00:37:17.342Z,2.30
2018-02-16T00:39:19.972Z,2.30
2018-02-16T00:41:23.412Z,2.40
2018-02-16T00:43:26.006Z,2.40
2018-02-16T00:45:28.670Z,2.40
2018-02-16T00:47:32.187Z,2.40
2018-02-16T00:49:35.548Z,2.30
2018-02-16T00:51:38.197Z,2.30
2018-02-16T00:53:41.920Z,2.30
2018-02-16T00:55:45.327Z,2.50
2018-02-16T00:57:47.936Z,2.50
2018-02-16T00:59:51.351Z,2.40
2018-02-16T01:01:53.962Z,2.40
2018-02-16T01:03:56.564Z,2.40
2018-02-16T01:05:59.282Z,2.40
2018-02-16T01:08:01.923Z,2.50
2018-02-16T01:10:04.518Z,2.50
2018-02-16T01:12:07.272Z,2.50
2018-02-16T01:14:09.921Z,2.50
2018-02-16T01:16:13.297Z,2.60
2018-02-16T01:18:15.951Z,2.50
2018-02-16T01:20:19.093Z,2.50
2018-02-16T01:22:21.833Z,2.50
2018-02-16T01:24:25.176Z,2.40
2018-02-16T01:26:27.843Z,2.40
2018-02-16T01:28:31.252Z,2.60
2018-02-16T01:30:33.908Z,2.60
2018-02-16T01:32:36.553Z,2.60
2018-02-16T01:34:39.963Z,2.70
2018-02-16T01:36:43.386Z,2.70
2018-02-16T01:38:46.894Z,2.70
2018-02-16T01:40:50.329Z,2.80
2018-02-16T01:42:53.007Z,2.70
2018-02-16T01:44:56.523Z,2.80
2018-02-16T01:46:59.918Z,2.70
2018-02-16T01:49:02.637Z,2.70
2018-02-16T01:51:06.017Z,2.60
2018-02-16T01:53:08.697Z,2.60
2018-02-16T01:55:11.300Z,2.60
2018-02-16T01:57:14.018Z,2.60
2018-02-16T01:59:16.697Z,2.60
2018-02-16T02:01:19.344Z,2.60
2018-02-16T02:03:21.974Z,2.50
2018-02-16T02:05:24.618Z,2.50
2018-02-16T02:07:27.272Z,2.50
2018-02-16T02:09:29.922Z,2.50
2018-02-16T02:11:33.338Z,2.50
2018-02-16T02:13:37.098Z,2.60
2018-02-16T02:15:39.753Z,2.50
2018-02-16T02:17:43.172Z,2.50
2018-02-16T02:19:46.682Z,2.50
2018-02-16T02:21:50.052Z,2.50
2018-02-16T02:23:52.794Z,2.40
2018-02-16T02:25:56.164Z,2.40
2018-02-16T02:27:58.838Z,2.40
2018-02-16T02:30:01.506Z,2.40
2018-02-16T02:32:04.923Z,2.40
2018-02-16T02:34:08.434Z,2.40
2018-02-16T02:36:11.798Z,2.40
2018-02-16T02:38:14.419Z,2.40
2018-02-16T02:40:17.072Z,2.40
2018-02-16T02:42:19.664Z,2.40
2018-02-16T02:44:22.302Z,2.40
2018-02-16T02:46:24.960Z,2.40
2018-02-16T02:48:27.578Z,2.40
2018-02-16T02:50:30.190Z,2.40
2018-02-16T02:52:32.819Z,2.30
2018-02-16T02:54:35.522Z,2.30
2018-02-16T02:56:38.905Z,2.30
2018-02-16T02:58:41.727Z,2.30
2018-02-16T03:00:45.141Z,2.30
2018-02-16T03:02:48.550Z,2.30
2018-02-16T03:04:51.359Z,2.30
2018-02-16T03:06:54.726Z,2.10
2018-02-16T03:08:58.085Z,2.10
2018-02-16T03:11:01.498Z,2.10
2018-02-16T03:13:04.849Z,2.10
2018-02-16T03:15:07.504Z,2.10
2018-02-16T03:17:10.200Z,2.20
2018-02-16T03:19:13.625Z,2.30
2018-02-16T03:21:16.415Z,2.20
2018-02-16T03:23:19.805Z,2.20
2018-02-16T03:25:22.415Z,2.20
2018-02-16T03:27:26.532Z,2.20
2018-02-16T03:29:29.251Z,2.20
2018-02-16T03:31:32.773Z,2.10
2018-02-16T03:33:36.164Z,2.30
2018-02-16T03:35:38.838Z,2.30
2018-02-16T03:37:41.479Z,2.20
2018-02-16T03:39:44.893Z,2.30
2018-02-16T03:41:48.408Z,2.30
2018-02-16T03:43:51.788Z,2.40
2018-02-16T03:45:54.520Z,2.30
2018-02-16T03:47:57.924Z,2.30
2018-02-16T03:50:00.600Z,2.30
2018-02-16T03:52:03.350Z,2.30
2018-02-16T03:54:06.029Z,2.30
2018-02-16T03:56:09.451Z,2.30
2018-02-16T03:58:12.850Z,2.30
2018-02-16T04:00:15.513Z,2.20
2018-02-16T04:02:18.122Z,2.20
2018-02-16T04:04:20.750Z,2.30
2018-02-16T04:06:24.260Z,2.40
2018-02-16T04:08:27.672Z,2.50
2018-02-16T04:10:31.206Z,2.60
2018-02-16T04:12:34.585Z,2.60
2018-02-16T04:14:37.199Z,2.60
2018-02-16T04:16:40.621Z,2.60
2018-02-16T04:18:44.026Z,2.60
2018-02-16T04:20:46.633Z,2.60
2018-02-16T04:22:50.146Z,2.70
2018-02-16T04:24:53.556Z,2.70
2018-02-16T04:26:56.253Z,2.70
2018-02-16T04:28:59.614Z,2.70
2018-02-16T04:31:02.288Z,2.70
2018-02-16T04:33:05.054Z,2.70
2018-02-16T04:35:07.756Z,2.70
2018-02-16T04:37:11.109Z,2.70
2018-02-16T04:41:22.820Z,2.70
2018-02-16T04:43:26.344Z,2.70
2018-02-16T04:45:29.843Z,2.70
2018-02-16T04:47:33.215Z,2.60
2018-02-16T04:49:35.929Z,2.60
2018-02-16T04:51:38.652Z,2.60
2018-02-16T04:53:42.045Z,2.50
2018-02-16T04:55:44.674Z,2.50
2018-02-16T04:57:47.366Z,2.40
2018-02-16T04:59:50.779Z,2.20
2018-02-16T05:01:54.338Z,2.10
2018-02-16T05:03:56.988Z,2.10
2018-02-16T05:06:00.479Z,2.20
2018-02-16T05:08:03.086Z,2.10
2018-02-16T05:10:05.706Z,2.20
2018-02-16T05:12:09.105Z,2.20
2018-02-16T05:14:12.529Z,2.10
2018-02-16T05:16:15.905Z,2.30
2018-02-16T05:18:18.537Z,2.30
2018-02-16T05:20:21.984Z,2.20
2018-02-16T05:22:24.610Z,2.20
2018-02-16T05:24:27.349Z,2.10
2018-02-16T05:26:30.862Z,2.00
2018-02-16T05:28:35.094Z,2.00
2018-02-16T05:30:38.467Z,2.00
2018-02-16T05:32:41.116Z,2.00
2018-02-16T05:34:44.526Z,1.90
2018-02-16T05:36:47.906Z,1.90
2018-02-16T05:38:50.638Z,1.80
2018-02-16T05:40:54.025Z,1.80
2018-02-16T05:42:56.737Z,1.70
2018-02-16T05:45:00.257Z,1.80
2018-02-16T05:47:03.682Z,1.80
2018-02-16T05:49:06.465Z,1.80
2018-02-16T05:51:09.846Z,1.90
2018-02-16T05:53:12.580Z,1.90
2018-02-16T05:55:15.960Z,1.80
2018-02-16T05:57:19.771Z,1.80
2018-02-16T05:59:23.159Z,1.70
2018-02-16T06:01:25.939Z,1.70
2018-02-16T06:03:29.451Z,1.60
2018-02-16T06:05:32.861Z,1.60
2018-02-16T06:07:36.271Z,1.70
2018-02-16T06:09:39.697Z,1.70
2018-02-16T06:11:43.207Z,1.70
2018-02-16T06:13:46.622Z,1.70
2018-02-16T06:15:50.056Z,1.80
2018-02-16T06:17:52.710Z,1.70
2018-02-16T06:19:55.331Z,1.80
2018-02-16T06:21:58.753Z,1.70
2018-02-16T06:24:01.355Z,1.60
2018-02-16T06:26:04.135Z,1.70
2018-02-16T06:28:07.556Z,1.80
2018-02-16T06:30:10.942Z,1.70
2018-02-16T06:32:13.594Z,1.70
2018-02-16T06:34:16.359Z,1.60
2018-02-16T06:36:19.750Z,1.60
2018-02-16T06:38:22.366Z,1.60
2018-02-16T06:40:25.851Z,1.50
2018-02-16T06:42:28.466Z,1.50
2018-02-16T06:44:31.181Z,1.50
2018-02-16T06:46:34.611Z,1.40
2018-02-16T06:48:37.281Z,1.40
2018-02-16T06:50:39.936Z,1.40
2018-02-16T06:52:42.581Z,1.50
2018-02-16T06:54:45.956Z,1.60
2018-02-16T06:56:48.616Z,1.60
2018-02-16T06:58:51.273Z,1.60
2018-02-16T07:00:53.897Z,1.60
2018-02-16T07:02:57.284Z,1.60
2018-02-16T07:04:59.939Z,1.60
2018-02-16T07:07:02.583Z,1.70
2018-02-16T07:09:05.220Z,1.70
2018-02-16T07:11:07.891Z,1.70
2018-02-16T07:13:10.688Z,1.70
2018-02-16T07:15:14.088Z,1.60
2018-02-16T07:17:16.802Z,1.60
2018-02-16T07:19:20.319Z,1.70
2018-02-16T07:21:23.737Z,1.60
2018-02-16T07:23:26.433Z,1.60
2018-02-16T07:25:29.952Z,1.70
2018-02-16T07:27:32.636Z,1.70
2018-02-16T07:29:35.342Z,1.70
2018-02-16T07:31:38.802Z,1.70
2018-02-16T07:33:41.558Z,1.70
2018-02-16T07:35:44.931Z,1.70
2018-02-16T07:37:47.581Z,1.70
2018-02-16T07:39:50.363Z,1.70
2018-02-16T07:41:53.772Z,1.70
2018-02-16T07:43:56.396Z,1.70
2018-02-16T07:45:59.028Z,1.80
2018-02-16T07:48:01.663Z,1.90
2018-02-16T07:50:05.048Z,1.90
2018-02-16T07:52:07.749Z,1.90
2018-02-16T07:54:10.397Z,1.80
2018-02-16T07:56:13.176Z,1.90
2018-02-16T07:58:16.568Z,1.90
2018-02-16T08:00:19.285Z,1.90
2018-02-16T08:02:22.697Z,2.10
2018-02-16T08:04:26.088Z,2.10
2018-02-16T08:06:28.798Z,2.10
2018-02-16T08:08:32.249Z,2.20
2018-02-16T08:10:34.877Z,2.20
2018-02-16T08:12:37.497Z,2.20
2018-02-16T08:14:40.319Z,2.20
2018-02-16T08:16:43.703Z,2.30
2018-02-16T08:18:46.302Z,2.30
2018-02-16T08:20:48.934Z,2.30
2018-02-16T08:22:52.334Z,2.20
2018-02-16T08:24:55.857Z,2.10
2018-02-16T08:26:59.287Z,2.10
2018-02-16T08:29:01.912Z,2.10
2018-02-16T08:31:04.681Z,2.20
2018-02-16T08:33:07.465Z,2.20
2018-02-16T08:35:10.986Z,2.10
2018-02-16T08:37:14.397Z,2.20
2018-02-16T08:39:17.808Z,2.20
2018-02-16T08:41:21.219Z,2.20
2018-02-16T08:43:24.617Z,2.20
2018-02-16T08:45:27.333Z,2.20
2018-02-16T08:47:30.768Z,2.30
2018-02-16T08:49:33.455Z,2.30
2018-02-16T08:51:36.073Z,2.40
2018-02-16T08:53:38.840Z,2.40
2018-02-16T08:55:42.213Z,2.50
2018-02-16T08:57:44.857Z,2.50
2018-02-16T08:59:48.368Z,2.60
2018-02-16T09:01:51.803Z,2.50
2018-02-16T09:03:54.484Z,2.50
2018-02-16T09:05:57.862Z,2.60
2018-02-16T09:08:00.489Z,2.60
2018-02-16T09:10:03.963Z,2.60
2018-02-16T09:12:06.580Z,2.60
2018-02-16T09:14:09.198Z,2.70
2018-02-16T09:16:12.593Z,2.70
2018-02-16T09:18:15.306Z,2.70
2018-02-16T09:20:18.732Z,2.80
2018-02-16T09:22:21.417Z,2.70
2018-02-16T09:24:24.824Z,2.90
2018-02-16T09:26:27.474Z,2.90
2018-02-16T09:28:30.228Z,3.00
2018-02-16T09:30:32.939Z,3.10
2018-02-16T09:32:36.315Z,3.20
2018-02-16T09:34:39.040Z,3.20
2018-02-16T09:36:42.980Z,3.30
2018-02-16T09:38:46.111Z,3.30
2018-02-16T09:40:48.718Z,3.30
2018-02-16T09:42:52.099Z,3.30
2018-02-16T09:44:54.767Z,3.30
2018-02-16T09:46:57.393Z,3.30
2018-02-16T09:49:00.070Z,3.30
2018-02-16T09:51:03.493Z,3.30
2018-02-16T09:53:07.001Z,3.30
2018-02-16T09:55:10.526Z,3.30
2018-02-16T09:57:13.924Z,3.30
2018-02-16T09:59:16.633Z,3.30
2018-02-16T10:01:20.050Z,3.30
2018-02-16T10:03:23.435Z,3.30
2018-02-16T10:05:26.070Z,3.30
2018-02-16T10:07:28.679Z,3.30
2018-02-16T10:09:31.454Z,3.30
2018-02-16T10:11:34.969Z,3.30
2018-02-16T10:13:38.335Z,3.30
2018-02-16T10:15:41.004Z,3.30
2018-02-16T10:17:43.673Z,3.30
2018-02-16T10:19:47.124Z,3.30
2018-02-16T10:21:49.886Z,3.30
2018-02-16T10:23:53.265Z,3.40
2018-02-16T10:25:56.000Z,3.40
2018-02-16T10:27:59.523Z,3.30
2018-02-16T10:30:02.892Z,3.30
2018-02-16T10:32:05.525Z,3.30
2018-02-16T10:34:09.040Z,3.30
2018-02-16T10:36:12.478Z,3.30
2018-02-16T10:38:15.865Z,3.30
2018-02-16T10:40:18.568Z,3.30
2018-02-16T10:42:21.950Z,3.40
2018-02-16T10:44:24.680Z,3.40
2018-02-16T10:46:28.071Z,3.40
2018-02-16T10:48:30.799Z,3.40
2018-02-16T10:50:34.200Z,3.40
2018-02-16T10:52:37.576Z,3.40
2018-02-16T10:54:40.267Z,3.40
2018-02-16T10:56:42.909Z,3.40
2018-02-16T10:58:46.274Z,3.40
2018-02-16T11:00:54.410Z,3.40
2018-02-16T11:05:38.354Z,3.30
2018-02-16T11:07:46.500Z,3.40
2018-02-16T11:09:49.134Z,3.40
2018-02-16T11:11:51.776Z,3.40
2018-02-16T11:13:54.488Z,3.40
2018-02-16T11:15:57.130Z,3.50
2018-02-16T11:18:00.636Z,3.50
2018-02-16T11:20:03.326Z,3.50
2018-02-16T11:22:05.923Z,3.70
2018-02-16T11:24:08.591Z,3.80
2018-02-16T11:26:12.010Z,4.00
2018-02-16T11:28:14.758Z,3.90
2018-02-16T11:30:18.185Z,4.30
2018-02-16T11:32:20.852Z,4.30
2018-02-16T11:34:23.666Z,4.40
2018-02-16T11:36:27.069Z,4.80
2018-02-16T11:38:29.715Z,4.80
2018-02-16T11:40:32.468Z,4.90
2018-02-16T11:42:35.878Z,5.10
2018-02-16T11:44:39.290Z,5.20
2018-02-16T11:46:41.895Z,5.10
2018-02-16T11:48:45.265Z,5.20
2018-02-16T11:50:48.012Z,5.20
2018-02-16T11:52:50.703Z,5.10
2018-02-16T11:54:54.125Z,5.00
2018-02-16T11:56:57.635Z,4.90
2018-02-16T11:59:01.056Z,5.00
2018-02-16T12:01:04.564Z,5.00
2018-02-16T12:03:07.975Z,5.00
2018-02-16T12:05:11.347Z,4.90
2018-02-16T12:07:14.101Z,4.90
2018-02-16T12:09:17.609Z,4.90
2018-02-16T12:11:20.966Z,4.90
2018-02-16T12:13:23.566Z,4.90
2018-02-16T12:15:26.319Z,4.90
2018-02-16T12:17:28.934Z,4.90
2018-02-16T12:19:31.609Z,4.90
2018-02-16T12:21:35.011Z,4.80
2018-02-16T12:23:37.626Z,4.80
2018-02-16T12:25:41.059Z,4.90
2018-02-16T12:27:43.736Z,4.90
2018-02-16T12:29:47.095Z,5.10
2018-02-16T12:31:49.691Z,5.10
2018-02-16T12:33:52.437Z,5.10
2018-02-16T12:35:55.865Z,5.30
2018-02-16T12:37:59.368Z,5.30
2018-02-16T12:40:02.043Z,5.30
2018-02-16T12:42:04.761Z,5.40
2018-02-16T12:44:08.176Z,5.50
2018-02-16T12:46:11.590Z,5.60
2018-02-16T12:48:15.006Z,5.70
2018-02-16T12:50:18.420Z,5.60
2018-02-16T12:52:21.937Z,5.50
2018-02-16T12:54:25.321Z,5.40
2018-02-16T12:56:28.057Z,5.40
2018-02-16T12:58:31.906Z,5.40
2018-02-16T13:00:34.520Z,5.30
2018-02-16T13:02:37.270Z,5.30
2018-02-16T13:04:40.884Z,5.30
2018-02-16T13:06:44.306Z,5.30
2018-02-16T13:08:47.711Z,5.30
2018-02-16T13:10:51.132Z,5.30
2018-02-16T13:12:54.544Z,5.30
2018-02-16T13:14:57.955Z,5.30
2018-02-16T13:17:00.653Z,5.30
2018-02-16T13:19:04.190Z,5.40
2018-02-16T13:21:06.864Z,5.30
2018-02-16T13:23:09.567Z,5.30
2018-02-16T13:25:13.082Z,5.20
2018-02-16T13:27:16.486Z,5.20
2018-02-16T13:29:19.911Z,5.20
2018-02-16T13:31:23.359Z,5.20
2018-02-16T13:33:25.958Z,5.10
2018-02-16T13:35:28.618Z,5.10
2018-02-16T13:37:32.080Z,5.20
2018-02-16T13:39:34.696Z,5.20
2018-02-16T13:41:37.531Z,5.30
2018-02-16T13:43:40.877Z,5.40
2018-02-16T13:45:43.617Z,5.40
2018-02-16T13:47:46.339Z,5.50
2018-02-16T13:49:49.717Z,5.70
2018-02-16T13:51:52.356Z,5.70
2018-02-16T13:53:55.857Z,5.90
2018-02-16T13:55:58.922Z,5.90
2018-02-16T13:58:01.631Z,6.00
2018-02-16T14:00:04.217Z,6.00
2018-02-16T14:02:06.865Z,6.00
2018-02-16T14:04:10.375Z,5.90
2018-02-16T14:06:13.836Z,5.80
2018-02-16T14:08:16.431Z,5.80
2018-02-16T14:10:19.156Z,5.80
2018-02-16T14:12:21.777Z,5.80
2018-02-16T14:14:25.203Z,5.80
2018-02-16T14:16:34.753Z,5.80
2018-02-16T14:18:38.264Z,5.90
2018-02-16T14:20:41.782Z,6.00
2018-02-16T14:22:45.203Z,6.00
2018-02-16T14:24:47.888Z,6.00
2018-02-16T14:26:50.563Z,6.00
2018-02-16T14:28:53.287Z,6.00
2018-02-16T14:30:56.728Z,5.90
2018-02-16T14:32:59.391Z,5.90
2018-02-16T14:35:02.020Z,5.90
2018-02-16T14:37:04.697Z,6.00
2018-02-16T14:39:08.116Z,6.10
2018-02-16T14:41:11.537Z,6.20
2018-02-16T14:43:14.126Z,6.10
2018-02-16T14:45:17.511Z,6.20
2018-02-16T14:47:20.194Z,6.10
2018-02-16T14:49:22.938Z,6.20
2018-02-16T14:51:25.621Z,6.20
2018-02-16T14:53:29.022Z,6.20
2018-02-16T14:55:31.640Z,6.20
2018-02-16T14:57:34.436Z,6.20
2018-02-16T14:59:37.833Z,6.10
2018-02-16T15:01:40.552Z,6.10
2018-02-16T15:03:43.348Z,6.10
2018-02-16T15:05:46.753Z,6.00
2018-02-16T15:07:50.186Z,5.80
2018-02-16T15:09:53.653Z,5.70
2018-02-16T15:11:56.385Z,5.60
2018-02-16T15:13:59.822Z,5.60
2018-02-16T15:16:02.443Z,5.60
2018-02-16T15:18:05.094Z,5.70
2018-02-16T15:20:07.733Z,5.80
2018-02-16T15:22:10.384Z,5.80
2018-02-16T15:24:13.849Z,6.00
2018-02-16T15:26:16.463Z,6.00
2018-02-16T15:28:19.105Z,5.90
2018-02-16T15:30:22.615Z,5.90
2018-02-16T15:32:26.000Z,5.70
2018-02-16T15:34:28.721Z,5.70
2018-02-16T15:36:32.109Z,5.70
2018-02-16T15:38:35.548Z,5.60
2018-02-16T15:40:38.250Z,5.60
2018-02-16T15:42:41.768Z,5.30
2018-02-16T15:44:45.205Z,5.30
2018-02-16T15:46:47.834Z,5.30
2018-02-16T15:48:50.511Z,5.30
2018-02-16T15:50:53.199Z,5.20
2018-02-16T15:52:55.882Z,5.10
2018-02-16T15:54:58.563Z,4.90
2018-02-16T15:57:01.950Z,4.70
2018-02-16T15:59:04.673Z,4.60
2018-02-16T16:01:08.079Z,4.50
2018-02-16T16:03:10.738Z,4.50
2018-02-16T16:05:13.388Z,4.60
2018-02-16T16:07:16.829Z,4.60
2018-02-16T16:09:19.479Z,4.60
2018-02-16T16:11:22.190Z,4.60
2018-02-16T16:13:25.625Z,4.50
2018-02-16T16:15:28.307Z,4.50
2018-02-16T16:17:31.702Z,4.50
2018-02-16T16:19:34.368Z,4.50
2018-02-16T16:21:37.020Z,4.40
2018-02-16T16:23:40.438Z,4.20
2018-02-16T16:25:43.899Z,4.20
2018-02-16T16:27:46.580Z,4.20
2018-02-16T16:29:49.238Z,4.20
2018-02-16T16:31:52.634Z,4.10
2018-02-16T16:33:55.321Z,4.10
2018-02-16T16:35:57.939Z,4.10
2018-02-16T16:38:01.325Z,4.20
2018-02-16T16:40:03.980Z,4.20
2018-02-16T16:42:06.660Z,4.30
2018-02-16T16:44:10.085Z,4.10
2018-02-16T16:46:12.765Z,4.10
2018-02-16T16:48:16.278Z,4.00
2018-02-16T16:50:19.644Z,3.90
2018-02-16T16:52:22.245Z,3.80
2018-02-16T16:54:24.904Z,3.80
2018-02-16T16:56:27.519Z,3.80
2018-02-16T16:58:30.132Z,3.70
2018-02-16T17:00:32.874Z,3.60
2018-02-16T17:02:36.310Z,3.50
2018-02-16T17:04:38.953Z,3.50
2018-02-16T17:06:41.688Z,3.40
2018-02-16T17:08:45.090Z,3.30
2018-02-16T17:10:47.703Z,3.30
2018-02-16T17:12:51.209Z,3.30
2018-02-16T17:14:54.620Z,3.40
2018-02-16T17:16:57.349Z,3.40
2018-02-16T17:19:00.010Z,3.30
2018-02-16T17:21:03.445Z,3.10
2018-02-16T17:23:06.926Z,3.10
2018-02-16T17:25:09.549Z,3.10
2018-02-16T17:27:12.245Z,3.00
2018-02-16T17:29:15.755Z,2.90
2018-02-16T17:31:19.174Z,3.00
2018-02-16T17:33:22.544Z,3.00
2018-02-16T17:35:25.286Z,2.90
2018-02-16T17:37:28.712Z,2.90
2018-02-16T17:39:32.214Z,2.90
2018-02-16T17:41:35.602Z,3.00
2018-02-16T17:43:38.191Z,3.00
2018-02-16T17:45:40.926Z,3.00
2018-02-16T17:47:44.560Z,2.80
2018-02-16T17:49:47.343Z,2.80
2018-02-16T17:51:50.719Z,3.00
2018-02-16T17:53:53.351Z,3.00
2018-02-16T17:55:56.775Z,3.20
2018-02-16T17:58:00.090Z,3.20
2018-02-16T18:00:02.786Z,3.20
2018-02-16T18:02:06.145Z,3.40
2018-02-16T18:04:08.800Z,3.40
2018-02-16T18:06:11.501Z,3.50
2018-02-16T18:08:14.862Z,3.50
2018-02-16T18:10:17.602Z,3.50
2018-02-16T18:12:20.265Z,3.50
2018-02-16T18:14:22.990Z,3.40
2018-02-16T18:16:26.416Z,3.20
2018-02-16T18:18:29.830Z,3.30
2018-02-16T18:20:33.259Z,3.20
2018-02-16T18:22:36.444Z,3.20
2018-02-16T18:24:39.812Z,3.00
2018-02-16T18:26:42.525Z,3.00
2018-02-16T18:28:45.304Z,2.90
2018-02-16T18:30:48.052Z,2.90
2018-02-16T18:32:51.570Z,2.90
2018-02-16T18:34:54.947Z,2.80
2018-02-16T18:36:57.575Z,2.80
2018-02-16T18:39:00.990Z,2.80
2018-02-16T18:41:04.404Z,2.80
2018-02-16T18:43:07.926Z,2.70
2018-02-16T18:45:11.312Z,2.60
2018-02-16T18:47:14.033Z,2.60
2018-02-16T18:49:17.445Z,2.60
2018-02-16T18:51:20.920Z,2.60
2018-02-16T18:53:23.580Z,2.60
2018-02-16T18:55:26.277Z,2.60
2018-02-16T18:57:28.939Z,2.50
2018-02-16T18:59:31.600Z,2.50
2018-02-16T19:01:34.260Z,2.40
2018-02-16T19:03:37.779Z,2.40
2018-02-16T19:05:40.442Z,2.40
2018-02-16T19:07:43.051Z,2.40
2018-02-16T19:09:45.753Z,2.30
2018-02-16T19:11:49.276Z,2.30
2018-02-16T19:13:52.683Z,2.20
2018-02-16T19:15:56.216Z,2.20
2018-02-16T19:17:58.832Z,2.20
2018-02-16T19:20:01.477Z,2.30
2018-02-16T19:22:04.193Z,2.20
2018-02-16T19:24:07.711Z,2.10
2018-02-16T19:26:11.101Z,2.10
2018-02-16T19:28:13.800Z,2.10
2018-02-16T19:30:16.423Z,2.10
2018-02-16T19:32:19.929Z,1.90
2018-02-16T19:34:23.325Z,1.80
2018-02-16T19:36:26.144Z,1.80
2018-02-16T19:38:28.872Z,1.80
2018-02-16T19:40:31.552Z,1.80
2018-02-16T19:42:34.987Z,1.80
2018-02-16T19:44:37.651Z,1.70
2018-02-16T19:46:41.065Z,1.60
2018-02-16T19:48:44.461Z,1.60
2018-02-16T19:50:47.180Z,1.60
2018-02-16T19:52:50.827Z,1.60
2018-02-16T19:54:53.802Z,1.50
2018-02-16T19:56:56.476Z,1.50
2018-02-16T19:58:59.237Z,1.50
2018-02-16T20:01:01.876Z,1.50
2018-02-16T20:03:04.901Z,1.40
2018-02-16T20:05:07.796Z,1.40
2018-02-16T20:07:10.806Z,1.40
2018-02-16T20:09:13.824Z,1.40
2018-02-16T20:11:17.275Z,1.40
2018-02-16T20:13:19.986Z,1.40
2018-02-16T20:15:22.619Z,1.50
2018-02-16T20:17:26.281Z,1.50
2018-02-16T20:19:29.036Z,1.50
2018-02-16T20:21:32.765Z,1.50
2018-02-16T20:23:36.527Z,1.70
2018-02-16T20:25:39.433Z,1.60
2018-02-16T20:27:42.426Z,1.60
2018-02-16T20:29:45.183Z,1.50
2018-02-16T20:31:48.789Z,1.50
2018-02-16T20:33:51.532Z,1.50
2018-02-16T20:35:54.519Z,1.50
2018-02-16T20:37:57.272Z,1.50
2018-02-16T20:39:59.894Z,1.50
2018-02-16T20:42:02.716Z,1.50
2018-02-16T20:44:06.136Z,1.50
2018-02-16T20:46:08.783Z,1.40
2018-02-16T20:48:11.612Z,1.40
2018-02-16T20:50:14.317Z,1.40
2018-02-16T20:52:17.728Z,1.40
2018-02-16T20:54:21.207Z,1.40
2018-02-16T20:56:23.869Z,1.40
2018-02-16T20:58:26.559Z,1.50
2018-02-16T21:00:29.199Z,1.40
2018-02-16T21:02:31.999Z,1.40
2018-02-16T21:04:34.737Z,1.50
2018-02-16T21:06:38.253Z,1.60
2018-02-16T21:08:41.655Z,1.50
2018-02-16T21:10:45.110Z,1.50
2018-02-16T21:12:47.751Z,1.50
2018-02-16T21:14:50.437Z,1.60
2018-02-16T21:16:53.084Z,1.50
2018-02-16T21:18:56.585Z,1.70
2018-02-16T21:21:00.033Z,1.70
2018-02-16T21:23:02.696Z,1.70
2018-02-16T21:25:06.223Z,1.80
2018-02-16T21:27:09.595Z,1.80
2018-02-16T21:29:12.340Z,1.80
2018-02-16T21:31:15.028Z,1.80
2018-02-16T21:33:18.479Z,1.70
2018-02-16T21:35:21.159Z,1.70
2018-02-16T21:37:23.935Z,1.70
2018-02-16T21:39:27.341Z,1.70
2018-02-16T21:41:29.972Z,1.60
2018-02-16T21:43:32.753Z,1.60
2018-02-16T21:45:36.136Z,1.40
2018-02-16T21:47:38.758Z,1.40
2018-02-16T21:49:42.169Z,1.60
2018-02-16T21:51:45.593Z,1.70
2018-02-16T21:53:48.281Z,1.60
2018-02-16T21:55:51.800Z,1.60
2018-02-16T21:57:55.198Z,1.50
2018-02-16T21:59:57.875Z,1.50
2018-02-16T22:02:00.511Z,1.60
2018-02-16T22:04:03.960Z,1.50
2018-02-16T22:06:06.597Z,1.40
2018-02-16T22:08:09.332Z,1.40
2018-02-16T22:10:11.990Z,1.50
2018-02-16T22:12:14.699Z,1.50
2018-02-16T22:14:17.404Z,1.60
2018-02-16T22:16:20.799Z,1.50
2018-02-16T22:18:23.481Z,1.40
2018-02-16T22:20:26.077Z,1.50
2018-02-16T22:22:28.740Z,1.50
2018-02-16T22:24:31.351Z,1.60
2018-02-16T22:26:34.108Z,1.60
2018-02-16T22:28:37.482Z,1.40
2018-02-16T22:30:40.944Z,1.40
2018-02-16T22:32:43.582Z,1.40
2018-02-16T22:34:46.282Z,1.40
2018-02-16T22:36:48.904Z,1.30
2018-02-16T22:38:51.600Z,1.20
2018-02-16T22:40:54.360Z,1.10
2018-02-16T22:42:57.848Z,1.10
2018-02-16T22:45:01.255Z,1.20
2018-02-16T22:47:04.684Z,1.10
2018-02-16T22:49:07.365Z,1.10
2018-02-16T22:51:10.872Z,1.10
2018-02-16T22:53:13.509Z,1.10
2018-02-16T22:55:16.116Z,1.10
2018-02-16T22:57:18.760Z,1.20
2018-02-16T22:59:21.450Z,1.20
2018-02-16T23:01:24.177Z,1.20
2018-02-16T23:03:26.852Z,1.20
2018-02-16T23:05:29.534Z,1.10
2018-02-16T23:07:32.177Z,1.20
2018-02-16T23:09:34.775Z,1.20
2018-02-16T23:11:37.447Z,1.30
2018-02-16T23:13:40.834Z,1.10
2018-02-16T23:15:43.488Z,1.10
2018-02-16T23:17:46.182Z,1.00
2018-02-16T23:19:48.859Z,1.00
2018-02-16T23:21:52.307Z,1.00
2018-02-16T23:23:55.074Z,1.00
2018-02-16T23:25:58.496Z,0.90
2018-02-16T23:28:01.180Z,0.90
2018-02-16T23:30:04.597Z,0.80
2018-02-16T23:32:08.006Z,0.70
2018-02-16T23:34:11.444Z,0.70
2018-02-16T23:36:14.120Z,0.70
2018-02-16T23:38:17.635Z,0.70
2018-02-16T23:40:21.055Z,0.70
2018-02-16T23:42:24.425Z,0.70
2018-02-16T23:44:27.080Z,0.60
2018-02-16T23:46:29.715Z,0.60
2018-02-16T23:48:32.607Z,0.60
2018-02-16T23:50:36.125Z,0.70
2018-02-16T23:52:38.925Z,0.70
2018-02-16T23:54:42.366Z,0.70
2018-02-16T23:56:44.982Z,0.70
2018-02-16T23:58:47.636Z,0.70
